createdAt,value
2023-01-28T00:02:27.326Z,38.86
2023-01-28T00:04:55.474Z,38.60
2023-01-28T00:07:25.011Z,38.03
2023-01-28T00:09:53.092Z,38.11
2023-01-28T00:12:21.211Z,38.49
2023-01-28T00:14:49.235Z,38.22
2023-01-28T00:17:17.283Z,38.64
2023-01-28T00:19:45.479Z,38.73
2023-01-28T00:22:13.522Z,38.48
2023-01-28T00:24:42.965Z,38.65
2023-01-28T00:27:11.126Z,38.66
2023-01-28T00:29:39.825Z,38.07
2023-01-28T00:32:07.921Z,38.16
2023-01-28T00:34:36.140Z,38.52
2023-01-28T00:37:08.092Z,38.78
2023-01-28T00:39:36.276Z,38.71
2023-01-28T00:42:06.680Z,38.15
2023-01-28T00:44:34.768Z,38.07
2023-01-28T00:47:04.334Z,38.43
2023-01-28T00:49:32.387Z,37.64
2023-01-28T00:52:00.559Z,37.85
2023-01-28T00:54:28.590Z,38.39
2023-01-28T00:56:56.703Z,38.38
2023-01-28T00:59:27.892Z,38.20
2023-01-28T01:02:12.922Z,37.76
2023-01-28T01:04:41.201Z,38.24
2023-01-28T01:07:09.259Z,38.43
2023-01-28T01:09:37.476Z,38.15
2023-01-28T01:12:05.799Z,38.20
2023-01-28T01:14:35.702Z,38.19
2023-01-28T01:17:03.840Z,38.21
2023-01-28T01:19:32.481Z,38.43
2023-01-28T01:22:01.632Z,37.92
2023-01-28T01:24:31.410Z,38.44
2023-01-28T01:27:00.385Z,37.83
2023-01-28T01:29:30.039Z,38.29
2023-01-28T01:31:59.554Z,37.81
2023-01-28T01:34:27.707Z,38.06
2023-01-28T01:36:55.892Z,38.22
2023-01-28T01:39:24.079Z,38.53
2023-01-28T01:41:52.171Z,37.87
2023-01-28T01:44:53.897Z,37.96
2023-01-28T01:47:23.803Z,38.47
2023-01-28T01:49:51.975Z,37.94
2023-01-28T01:52:21.371Z,37.87
2023-01-28T01:54:51.140Z,38.12
2023-01-28T01:57:24.888Z,37.90
2023-01-28T01:59:53.130Z,38.15
2023-01-28T02:02:21.209Z,37.95
2023-01-28T02:04:50.728Z,37.93
2023-01-28T02:07:18.886Z,38.10
2023-01-28T02:09:47.218Z,38.55
2023-01-28T02:12:15.955Z,38.38
2023-01-28T02:14:45.517Z,37.65
2023-01-28T02:17:13.673Z,38.53
2023-01-28T02:19:44.273Z,38.30
2023-01-28T02:22:31.780Z,38.22
2023-01-28T02:25:32.211Z,37.93
2023-01-28T02:28:11.032Z,38.48
2023-01-28T02:30:41.467Z,37.99
2023-01-28T02:33:10.943Z,38.34
2023-01-28T02:35:40.819Z,37.82
2023-01-28T02:38:10.256Z,37.80
2023-01-28T02:41:00.904Z,37.89
2023-01-28T02:43:34.966Z,38.44
2023-01-28T02:46:22.480Z,38.41
2023-01-28T02:48:50.644Z,37.92
2023-01-28T02:51:24.886Z,37.71
2023-01-28T02:53:55.082Z,37.72
2023-01-28T02:56:29.604Z,38.41
2023-01-28T02:59:23.854Z,37.82
2023-01-28T03:01:58.438Z,37.74
2023-01-28T03:04:29.817Z,38.40
2023-01-28T03:07:00.031Z,38.08
2023-01-28T03:09:28.198Z,37.86
2023-01-28T03:12:15.050Z,37.84
2023-01-28T03:15:02.618Z,37.73
2023-01-28T03:17:50.940Z,37.85
2023-01-28T03:20:36.833Z,38.12
2023-01-28T03:23:26.469Z,37.67
2023-01-28T03:26:12.807Z,37.76
2023-01-28T03:28:58.076Z,37.82
2023-01-28T03:31:44.981Z,37.49
2023-01-28T03:34:31.755Z,37.28
2023-01-28T03:37:00.179Z,37.36
2023-01-28T03:39:47.401Z,37.22
2023-01-28T03:42:16.613Z,37.83
2023-01-28T03:45:09.359Z,37.26
2023-01-28T03:47:40.756Z,37.82
2023-01-28T03:50:12.136Z,37.21
2023-01-28T03:52:49.424Z,37.29
2023-01-28T03:55:30.918Z,37.10
2023-01-28T03:57:59.144Z,37.10
2023-01-28T04:00:27.288Z,37.74
2023-01-28T04:02:58.145Z,37.31
2023-01-28T04:05:26.494Z,37.43
2023-01-28T04:07:55.897Z,37.53
2023-01-28T04:10:49.782Z,37.60
2023-01-28T04:13:23.056Z,37.03
2023-01-28T04:15:51.547Z,37.54
2023-01-28T04:18:27.321Z,36.89
2023-01-28T04:20:57.696Z,36.93
2023-01-28T04:23:25.986Z,37.02
2023-01-28T04:25:54.100Z,37.25
2023-01-28T04:28:23.985Z,37.59
2023-01-28T04:30:53.256Z,36.86
2023-01-28T04:33:57.954Z,36.87
2023-01-28T04:36:40.251Z,37.50
2023-01-28T04:39:24.433Z,37.36
2023-01-28T04:42:17.582Z,37.03
2023-01-28T04:45:12.816Z,36.92
2023-01-28T04:48:01.071Z,36.80
2023-01-28T04:50:53.104Z,37.05
2023-01-28T04:53:34.423Z,36.73
2023-01-28T04:56:08.883Z,37.16
2023-01-28T04:58:37.716Z,36.78
2023-01-28T05:01:10.705Z,37.30
2023-01-28T05:03:38.855Z,36.84
2023-01-28T05:06:10.432Z,36.92
2023-01-28T05:08:42.907Z,37.21
2023-01-28T05:11:11.106Z,37.33
2023-01-28T05:13:39.810Z,37.39
2023-01-28T05:16:09.545Z,36.69
2023-01-28T05:18:38.163Z,37.39
2023-01-28T05:21:13.383Z,37.47
2023-01-28T05:23:41.850Z,37.16
2023-01-28T05:26:10.439Z,36.93
2023-01-28T05:28:38.483Z,37.45
2023-01-28T05:31:06.840Z,37.62
2023-01-28T05:33:35.152Z,37.34
2023-01-28T05:36:05.537Z,36.84
2023-01-28T05:38:35.154Z,37.11
2023-01-28T05:41:03.331Z,36.83
2023-01-28T05:43:31.448Z,36.57
2023-01-28T05:46:18.375Z,36.59
2023-01-28T05:49:01.853Z,37.18
2023-01-28T05:51:51.603Z,36.52
2023-01-28T05:54:23.758Z,36.82
2023-01-28T05:56:51.927Z,36.55
2023-01-28T05:59:20.060Z,36.45
2023-01-28T06:01:50.546Z,36.89
2023-01-28T06:04:19.009Z,37.11
2023-01-28T06:06:47.487Z,36.98
2023-01-28T06:09:16.148Z,36.82
2023-01-28T06:11:46.671Z,36.33
2023-01-28T06:14:15.591Z,36.94
2023-01-28T06:17:18.716Z,36.74
2023-01-28T06:20:03.037Z,36.66
2023-01-28T06:22:32.749Z,36.29
2023-01-28T06:25:01.469Z,36.73
2023-01-28T06:27:30.961Z,36.09
2023-01-28T06:29:59.067Z,36.39
2023-01-28T06:32:27.299Z,36.38
2023-01-28T06:34:55.498Z,36.71
2023-01-28T06:37:26.242Z,36.06
2023-01-28T06:39:54.457Z,36.46
2023-01-28T06:42:22.696Z,36.64
2023-01-28T06:44:52.218Z,36.62
2023-01-28T06:47:20.322Z,36.42
2023-01-28T06:49:48.467Z,36.55
2023-01-28T06:52:16.541Z,36.54
2023-01-28T06:54:44.649Z,36.19
2023-01-28T06:57:12.703Z,36.53
2023-01-28T06:59:40.843Z,36.55
2023-01-28T07:02:12.301Z,36.46
2023-01-28T07:04:40.498Z,36.50
2023-01-28T07:07:08.711Z,36.58
2023-01-28T07:09:36.847Z,36.15
2023-01-28T07:12:06.207Z,36.21
2023-01-28T07:14:34.295Z,36.07
2023-01-28T07:17:02.423Z,36.27
2023-01-28T07:19:31.872Z,36.31
2023-01-28T07:22:00.992Z,36.38
2023-01-28T07:24:29.160Z,35.99
2023-01-28T07:26:57.353Z,36.21
2023-01-28T07:29:25.408Z,36.18
2023-01-28T07:31:53.623Z,36.38
2023-01-28T07:34:21.871Z,36.32
2023-01-28T07:36:51.292Z,36.78
2023-01-28T07:39:19.398Z,36.82
2023-01-28T07:41:47.487Z,36.15
2023-01-28T07:44:32.219Z,36.63
2023-01-28T07:47:00.382Z,35.66
2023-01-28T07:49:28.706Z,35.57
2023-01-28T07:51:58.174Z,35.23
2023-01-28T07:54:27.536Z,35.88
2023-01-28T07:56:55.677Z,36.10
2023-01-28T07:59:23.825Z,35.58
2023-01-28T08:01:54.737Z,35.40
2023-01-28T08:04:23.228Z,35.74
2023-01-28T08:06:52.363Z,35.77
2023-01-28T08:09:21.867Z,36.03
2023-01-28T08:11:49.907Z,35.30
2023-01-28T08:14:17.984Z,36.03
2023-01-28T08:16:46.110Z,35.76
2023-01-28T08:19:14.283Z,35.93
2023-01-28T08:21:42.415Z,35.72
2023-01-28T08:24:10.606Z,35.75
2023-01-28T08:26:40.140Z,35.87
2023-01-28T08:29:08.250Z,35.39
2023-01-28T08:31:36.407Z,35.67
2023-01-28T08:34:04.565Z,35.86
2023-01-28T08:36:32.594Z,35.93
2023-01-28T08:39:00.698Z,35.63
2023-01-28T08:41:28.717Z,38.17
2023-01-28T08:43:58.456Z,37.21
2023-01-28T08:46:26.768Z,36.27
2023-01-28T08:48:54.881Z,36.21
2023-01-28T08:51:23.146Z,36.88
2023-01-28T08:53:51.619Z,36.87
2023-01-28T08:56:19.787Z,36.79
2023-01-28T08:58:47.877Z,36.89
2023-01-28T09:01:17.515Z,36.25
2023-01-28T09:03:45.751Z,36.20
2023-01-28T09:06:13.919Z,36.20
2023-01-28T09:08:41.995Z,36.21
2023-01-28T09:11:10.042Z,36.33
2023-01-28T09:13:38.127Z,36.43
2023-01-28T09:16:06.727Z,37.10
2023-01-28T09:18:36.518Z,37.10
2023-01-28T09:21:07.115Z,36.45
2023-01-28T09:23:36.333Z,36.55
2023-01-28T09:26:04.565Z,36.60
2023-01-28T09:28:32.937Z,36.54
2023-01-28T09:31:04.766Z,37.30
2023-01-28T09:33:33.158Z,37.31
2023-01-28T09:36:02.981Z,37.28
2023-01-28T09:38:31.736Z,37.48
2023-01-28T09:41:00.007Z,37.31
2023-01-28T09:43:40.807Z,37.27
2023-01-28T09:46:11.737Z,37.43
2023-01-28T09:48:41.331Z,36.99
2023-01-28T09:51:12.267Z,37.04
2023-01-28T09:53:42.283Z,37.16
2023-01-28T09:56:12.920Z,37.36
2023-01-28T09:58:42.871Z,37.59
2023-01-28T10:01:24.115Z,37.40
2023-01-28T10:03:54.764Z,37.10
2023-01-28T10:06:28.796Z,37.15
2023-01-28T10:09:08.238Z,37.64
2023-01-28T10:11:45.279Z,37.13
2023-01-28T10:14:16.280Z,36.66
2023-01-28T10:16:44.984Z,37.23
2023-01-28T10:19:17.138Z,37.36
2023-01-28T10:21:48.727Z,36.95
2023-01-28T10:24:19.878Z,37.24
2023-01-28T10:26:48.034Z,36.77
2023-01-28T10:29:18.422Z,37.17
2023-01-28T10:31:53.298Z,37.44
2023-01-28T10:34:21.540Z,36.91
2023-01-28T10:36:51.062Z,36.88
2023-01-28T10:39:21.203Z,36.91
2023-01-28T10:41:57.895Z,37.54
2023-01-28T10:44:31.997Z,37.35
2023-01-28T10:47:02.731Z,36.98
2023-01-28T10:49:31.073Z,37.27
2023-01-28T10:52:00.618Z,37.04
2023-01-28T10:54:29.754Z,36.91
2023-01-28T10:57:00.635Z,37.01
2023-01-28T10:59:29.511Z,37.55
2023-01-28T11:01:58.774Z,37.37
2023-01-28T11:04:29.715Z,37.06
2023-01-28T11:07:13.815Z,37.26
2023-01-28T11:09:46.645Z,37.68
2023-01-28T11:12:19.243Z,37.14
2023-01-28T11:14:51.406Z,37.25
2023-01-28T11:17:19.821Z,37.33
2023-01-28T11:19:48.017Z,37.10
2023-01-28T11:22:22.020Z,37.34
2023-01-28T11:24:51.679Z,37.36
2023-01-28T11:27:20.121Z,37.66
2023-01-28T11:29:48.453Z,37.22
2023-01-28T11:32:20.185Z,37.38
2023-01-28T11:34:51.956Z,37.34
2023-01-28T11:37:22.799Z,37.69
2023-01-28T11:40:01.925Z,37.05
2023-01-28T11:42:30.137Z,37.20
2023-01-28T11:44:58.360Z,37.48
2023-01-28T11:47:43.489Z,37.67
2023-01-28T11:50:17.826Z,37.43
2023-01-28T11:53:08.391Z,37.71
2023-01-28T11:55:46.656Z,37.38
2023-01-28T11:58:24.139Z,37.57
2023-01-28T12:01:02.210Z,37.17
2023-01-28T12:03:51.484Z,37.23
2023-01-28T12:06:27.992Z,37.04
2023-01-28T12:09:00.842Z,36.78
2023-01-28T12:12:05.986Z,36.94
2023-01-28T12:14:37.788Z,37.52
2023-01-28T12:17:13.198Z,37.15
2023-01-28T12:19:52.403Z,37.63
2023-01-28T12:22:50.167Z,36.86
2023-01-28T12:25:26.074Z,37.26
2023-01-28T12:28:00.905Z,37.65
2023-01-28T12:30:36.944Z,37.33
2023-01-28T12:33:20.717Z,37.18
2023-01-28T12:35:55.836Z,36.72
2023-01-28T12:38:28.629Z,37.30
2023-01-28T12:41:00.555Z,37.08
2023-01-28T12:43:44.032Z,36.73
2023-01-28T12:46:16.222Z,37.66
2023-01-28T12:48:45.172Z,37.03
2023-01-28T12:51:15.301Z,37.11
2023-01-28T12:53:47.148Z,37.30
2023-01-28T12:56:17.022Z,37.40
2023-01-28T12:58:48.737Z,37.60
2023-01-28T13:01:19.572Z,37.60
2023-01-28T13:03:51.355Z,37.00
2023-01-28T13:06:22.765Z,37.00
2023-01-28T13:08:50.934Z,37.04
2023-01-28T13:11:19.000Z,36.63
2023-01-28T13:13:48.910Z,37.15
2023-01-28T13:16:19.365Z,36.99
2023-01-28T13:18:49.516Z,36.58
2023-01-28T13:21:32.452Z,36.82
2023-01-28T13:24:08.464Z,36.93
2023-01-28T13:26:44.864Z,37.16
2023-01-28T13:29:31.361Z,37.20
2023-01-28T13:32:01.135Z,37.30
2023-01-28T13:34:34.745Z,36.84
2023-01-28T13:37:06.159Z,37.21
2023-01-28T13:39:35.575Z,37.12
2023-01-28T13:42:11.969Z,37.47
2023-01-28T13:44:41.522Z,37.37
2023-01-28T13:47:21.733Z,36.63
2023-01-28T13:49:51.181Z,37.02
2023-01-28T13:52:21.662Z,37.31
2023-01-28T13:54:52.535Z,37.19
2023-01-28T13:57:49.387Z,36.78
2023-01-28T14:00:23.885Z,37.10
2023-01-28T14:03:47.855Z,37.35
2023-01-28T14:06:35.261Z,36.62
2023-01-28T14:09:23.885Z,36.67
2023-01-28T14:12:17.491Z,36.62
2023-01-28T14:15:17.695Z,37.11
2023-01-28T14:17:47.793Z,36.75
2023-01-28T14:20:19.637Z,36.53
2023-01-28T14:22:48.127Z,36.77
2023-01-28T14:25:18.568Z,37.01
2023-01-28T14:27:48.854Z,36.41
2023-01-28T14:30:20.023Z,36.46
2023-01-28T14:32:50.490Z,36.58
2023-01-28T14:35:21.063Z,36.62
2023-01-28T14:37:49.255Z,36.67
2023-01-28T14:40:17.906Z,36.38
2023-01-28T14:42:47.333Z,36.37
2023-01-28T14:45:24.387Z,36.03
2023-01-28T14:48:05.231Z,36.32
2023-01-28T14:50:44.991Z,36.39
2023-01-28T14:53:22.372Z,35.74
2023-01-28T14:55:53.656Z,35.66
2023-01-28T14:58:23.391Z,36.62
2023-01-28T15:00:55.190Z,36.25
2023-01-28T15:03:25.683Z,36.08
2023-01-28T15:06:05.043Z,35.78
2023-01-28T15:08:33.389Z,36.21
2023-01-28T15:11:01.769Z,35.75
2023-01-28T15:13:30.519Z,36.10
2023-01-28T15:16:00.764Z,35.48
2023-01-28T15:18:33.531Z,35.81
2023-01-28T15:21:01.685Z,35.95
2023-01-28T15:23:32.671Z,35.53
2023-01-28T15:26:00.800Z,35.79
2023-01-28T15:28:30.066Z,35.93
2023-01-28T15:30:59.563Z,36.18
2023-01-28T15:33:27.870Z,35.78
2023-01-28T15:35:58.253Z,35.59
2023-01-28T15:38:28.970Z,35.66
2023-01-28T15:40:58.428Z,35.85
2023-01-28T15:43:28.055Z,35.51
2023-01-28T15:45:56.553Z,35.33
2023-01-28T15:48:25.086Z,35.50
2023-01-28T15:51:00.757Z,36.08
2023-01-28T15:53:28.959Z,35.32
2023-01-28T15:56:05.561Z,35.61
2023-01-28T15:58:37.086Z,35.32
2023-01-28T16:01:13.786Z,35.38
2023-01-28T16:03:42.746Z,35.46
2023-01-28T16:06:13.334Z,35.28
2023-01-28T16:08:43.338Z,35.67
2023-01-28T16:11:11.411Z,35.54
2023-01-28T16:13:42.988Z,35.20
2023-01-28T16:16:11.258Z,35.63
2023-01-28T16:18:41.081Z,35.28
2023-01-28T16:21:10.550Z,35.95
2023-01-28T16:23:40.560Z,35.67
2023-01-28T16:26:20.823Z,35.32
2023-01-28T16:28:48.930Z,35.88
2023-01-28T16:31:17.016Z,35.89
2023-01-28T16:33:45.197Z,35.12
2023-01-28T16:36:13.702Z,35.79
2023-01-28T16:38:43.262Z,35.28
2023-01-28T16:41:15.605Z,35.65
2023-01-28T16:43:43.725Z,35.93
2023-01-28T16:46:13.427Z,35.64
2023-01-28T16:48:41.549Z,35.53
2023-01-28T16:51:14.687Z,35.67
2023-01-28T16:53:44.388Z,35.70
2023-01-28T16:56:35.947Z,35.46
2023-01-28T16:59:03.054Z,35.22
2023-01-28T17:01:31.458Z,35.85
2023-01-28T17:03:59.561Z,35.64
2023-01-28T17:06:27.766Z,35.40
2023-01-28T17:08:57.247Z,35.27
2023-01-28T17:11:25.722Z,35.69
2023-01-28T17:13:53.866Z,35.84
2023-01-28T17:16:21.997Z,35.33
2023-01-28T17:18:51.390Z,35.35
2023-01-28T17:21:19.500Z,35.11
2023-01-28T17:23:47.592Z,34.77
2023-01-28T17:26:17.296Z,35.44
2023-01-28T17:28:45.500Z,35.67
2023-01-28T17:31:14.768Z,35.32
2023-01-28T17:33:43.063Z,35.75
2023-01-28T17:36:11.281Z,35.34
2023-01-28T17:38:39.482Z,35.48
2023-01-28T17:41:08.510Z,35.06
2023-01-28T17:43:38.136Z,35.80
2023-01-28T17:46:11.881Z,35.60
2023-01-28T17:48:40.124Z,35.11
2023-01-28T17:51:08.235Z,35.93
2023-01-28T17:53:36.644Z,35.69
2023-01-28T17:56:04.942Z,35.52
2023-01-28T17:58:33.095Z,35.62
2023-01-28T18:01:08.918Z,35.27
2023-01-28T18:03:37.140Z,35.72
2023-01-28T18:06:07.323Z,35.62
2023-01-28T18:08:35.983Z,35.72
2023-01-28T18:11:04.060Z,35.69
2023-01-28T18:13:32.252Z,35.93
2023-01-28T18:16:00.314Z,35.49
2023-01-28T18:18:29.819Z,36.14
2023-01-28T18:20:58.734Z,35.51
2023-01-28T18:23:26.999Z,36.21
2023-01-28T18:25:57.275Z,35.67
2023-01-28T18:28:25.542Z,36.25
2023-01-28T18:30:53.662Z,35.82
2023-01-28T18:33:22.034Z,35.79
2023-01-28T18:35:51.544Z,36.23
2023-01-28T18:38:19.735Z,36.11
2023-01-28T18:40:47.810Z,36.00
2023-01-28T18:43:15.982Z,36.37
2023-01-28T18:45:45.660Z,36.52
2023-01-28T18:48:13.888Z,35.93
2023-01-28T18:50:41.943Z,36.75
2023-01-28T18:53:11.487Z,36.80
2023-01-28T18:55:39.554Z,36.83
2023-01-28T18:58:07.645Z,36.58
2023-01-28T19:00:35.696Z,36.30
2023-01-28T19:03:03.821Z,36.68
2023-01-28T19:05:36.109Z,36.56
2023-01-28T19:08:05.101Z,36.87
2023-01-28T19:10:34.589Z,36.71
2023-01-28T19:13:02.856Z,36.94
2023-01-28T19:15:31.168Z,36.85
2023-01-28T19:17:59.328Z,36.25
2023-01-28T19:20:27.493Z,36.58
2023-01-28T19:22:55.619Z,36.78
2023-01-28T19:25:23.887Z,36.37
2023-01-28T19:27:55.724Z,36.33
2023-01-28T19:30:23.895Z,36.95
2023-01-28T19:32:54.028Z,36.47
2023-01-28T19:35:22.211Z,36.58
2023-01-28T19:37:50.367Z,36.69
2023-01-28T19:40:18.965Z,36.52
2023-01-28T19:42:47.089Z,37.04
2023-01-28T19:45:16.823Z,36.96
2023-01-28T19:47:45.140Z,36.96
2023-01-28T19:50:13.265Z,36.82
2023-01-28T19:52:41.383Z,36.96
2023-01-28T19:55:10.541Z,36.61
2023-01-28T19:57:38.656Z,37.05
2023-01-28T20:00:08.278Z,36.95
2023-01-28T20:02:37.841Z,37.08
2023-01-28T20:05:06.691Z,36.62
2023-01-28T20:07:34.769Z,37.26
2023-01-28T20:10:03.033Z,36.50
2023-01-28T20:12:31.328Z,36.92
2023-01-28T20:14:59.573Z,36.53
2023-01-28T20:17:28.576Z,36.98
2023-01-28T20:19:58.054Z,37.42
2023-01-28T20:22:26.129Z,36.59
2023-01-28T20:24:57.286Z,36.70
2023-01-28T20:27:25.598Z,36.70
2023-01-28T20:29:53.782Z,36.98
2023-01-28T20:32:23.208Z,37.04
2023-01-28T20:34:51.987Z,37.25
2023-01-28T20:37:21.423Z,37.05
2023-01-28T20:39:49.575Z,37.08
2023-01-28T20:42:17.623Z,36.75
2023-01-28T20:44:45.742Z,37.10
2023-01-28T20:47:13.822Z,37.36
2023-01-28T20:49:42.040Z,36.88
2023-01-28T20:52:10.101Z,37.48
2023-01-28T20:54:39.606Z,37.29
2023-01-28T20:57:07.769Z,37.25
2023-01-28T20:59:36.556Z,37.37
2023-01-28T21:02:05.439Z,37.28
2023-01-28T21:04:34.439Z,37.22
2023-01-28T21:07:02.576Z,37.04
2023-01-28T21:09:30.784Z,37.15
2023-01-28T21:12:00.274Z,36.63
2023-01-28T21:14:28.329Z,36.31
2023-01-28T21:16:56.528Z,36.57
2023-01-28T21:19:24.945Z,36.74
2023-01-28T21:21:53.046Z,36.39
2023-01-28T21:24:21.117Z,36.26
2023-01-28T21:26:49.220Z,37.06
2023-01-28T21:29:18.944Z,36.82
2023-01-28T21:31:47.129Z,36.83
2023-01-28T21:34:16.056Z,36.34
2023-01-28T21:36:44.249Z,36.94
2023-01-28T21:39:12.342Z,36.67
2023-01-28T21:41:40.871Z,37.10
2023-01-28T21:44:08.919Z,37.12
2023-01-28T21:46:38.452Z,36.49
2023-01-28T21:49:06.535Z,36.54
2023-01-28T21:51:36.572Z,36.74
2023-01-28T21:54:05.098Z,36.87
2023-01-28T21:56:33.188Z,36.95
2023-01-28T21:59:18.857Z,36.62
2023-01-28T22:01:48.962Z,36.00
2023-01-28T22:04:17.159Z,35.84
2023-01-28T22:06:45.406Z,36.45
2023-01-28T22:09:14.133Z,36.35
2023-01-28T22:11:42.786Z,35.95
2023-01-28T22:14:11.131Z,35.76
2023-01-28T22:16:39.216Z,35.93
2023-01-28T22:19:08.713Z,36.15
2023-01-28T22:21:41.163Z,35.82
2023-01-28T22:24:11.391Z,36.23
2023-01-28T22:26:39.608Z,36.27
2023-01-28T22:29:07.716Z,36.02
2023-01-28T22:31:35.985Z,36.42
2023-01-28T22:34:04.423Z,35.88
2023-01-28T22:36:33.957Z,35.98
2023-01-28T22:39:02.263Z,36.28
2023-01-28T22:41:30.426Z,36.12
2023-01-28T22:44:01.501Z,36.44
2023-01-28T22:46:29.805Z,35.99
2023-01-28T22:48:57.937Z,36.48
2023-01-28T22:51:26.786Z,35.92
2023-01-28T22:53:56.233Z,35.73
2023-01-28T22:56:25.175Z,36.45
2023-01-28T22:58:55.575Z,36.43
2023-01-28T23:01:23.777Z,36.51
2023-01-28T23:03:52.043Z,35.77
2023-01-28T23:06:20.890Z,35.58
2023-01-28T23:08:49.063Z,35.56
2023-01-28T23:11:25.308Z,35.94
2023-01-28T23:14:10.958Z,36.04
2023-01-28T23:17:02.505Z,36.53
2023-01-28T23:19:48.065Z,36.22
2023-01-28T23:22:34.571Z,36.58
2023-01-28T23:25:02.695Z,36.30
2023-01-28T23:27:32.403Z,36.00
2023-01-28T23:30:00.594Z,36.11
2023-01-28T23:32:28.623Z,36.29
2023-01-28T23:34:57.358Z,36.07
2023-01-28T23:37:25.385Z,35.70
2023-01-28T23:39:53.518Z,36.23
2023-01-28T23:42:23.556Z,36.02
2023-01-28T23:44:53.218Z,36.32
2023-01-28T23:47:21.261Z,36.28
2023-01-28T23:49:49.389Z,36.42
2023-01-28T23:52:17.507Z,36.69
2023-01-28T23:54:45.684Z,35.96
2023-01-28T23:57:13.791Z,36.47
2023-01-28T23:59:42.542Z,36.64
